sensor_id;sensor_type;location;lat;lon;timestamp;pressure;altitude;pressure_sealevel;temperature;humidity
49979;BME280;35869;50.990;6.962;2023-06-24T00:04:50;102111.25;;;19.72;83.88
49979;BME280;35869;50.990;6.962;2023-06-24T00:09:50;102110.97;;;19.77;83.96
49979;BME280;35869;50.990;6.962;2023-06-24T00:14:50;102114.16;;;19.67;87.13
49979;BME280;35869;50.990;6.962;2023-06-24T00:19:50;102111.88;;;19.61;89.24
49979;BME280;35869;50.990;6.962;2023-06-24T00:24:51;102119.28;;;19.55;87.79
49979;BME280;35869;50.990;6.962;2023-06-24T00:29:51;102113.06;;;19.56;86.16
49979;BME280;35869;50.990;6.962;2023-06-24T00:34:51;102111.75;;;19.49;87.05
49979;BME280;35869;50.990;6.962;2023-06-24T00:39:51;102107.47;;;19.46;86.83
49979;BME280;35869;50.990;6.962;2023-06-24T00:44:51;102109.38;;;19.44;86.46
49979;BME280;35869;50.990;6.962;2023-06-24T00:49:52;102107.19;;;19.36;87.80
49979;BME280;35869;50.990;6.962;2023-06-24T00:54:52;102109.06;;;19.34;88.21
49979;BME280;35869;50.990;6.962;2023-06-24T00:59:52;102111.22;;;19.28;88.45
49979;BME280;35869;50.990;6.962;2023-06-24T01:04:53;102112.41;;;19.22;88.73
49979;BME280;35869;50.990;6.962;2023-06-24T01:09:53;102112.72;;;19.17;87.26
49979;BME280;35869;50.990;6.962;2023-06-24T01:14:54;102114.75;;;19.12;88.99
49979;BME280;35869;50.990;6.962;2023-06-24T01:35:59;102102.56;;;18.96;89.89
49979;BME280;35869;50.990;6.962;2023-06-24T01:41:02;102106.19;;;18.93;89.82
49979;BME280;35869;50.990;6.962;2023-06-24T01:46:04;102103.75;;;18.90;88.64
49979;BME280;35869;50.990;6.962;2023-06-24T01:51:17;102103.16;;;18.85;88.60
49979;BME280;35869;50.990;6.962;2023-06-24T01:56:20;102100.69;;;18.82;90.19
49979;BME280;35869;50.990;6.962;2023-06-24T02:01:22;102104.44;;;18.78;89.42
49979;BME280;35869;50.990;6.962;2023-06-24T02:06:25;102107.19;;;18.76;88.88
49979;BME280;35869;50.990;6.962;2023-06-24T02:11:28;102104.00;;;18.70;87.93
49979;BME280;35869;50.990;6.962;2023-06-24T02:16:30;102099.69;;;18.69;89.75
49979;BME280;35869;50.990;6.962;2023-06-24T02:21:34;102097.28;;;18.64;89.21
49979;BME280;35869;50.990;6.962;2023-06-24T02:26:36;102102.97;;;18.56;88.80
49979;BME280;35869;50.990;6.962;2023-06-24T02:31:37;102094.94;;;18.59;89.16
49979;BME280;35869;50.990;6.962;2023-06-24T02:36:37;102096.78;;;18.57;89.18
49979;BME280;35869;50.990;6.962;2023-06-24T02:41:37;102092.53;;;18.55;89.06
49979;BME280;35869;50.990;6.962;2023-06-24T02:46:38;102101.72;;;18.48;88.72
49979;BME280;35869;50.990;6.962;2023-06-24T02:51:39;102111.56;;;18.44;88.61
49979;BME280;35869;50.990;6.962;2023-06-24T02:56:41;102111.38;;;18.31;88.70
49979;BME280;35869;50.990;6.962;2023-06-24T03:01:42;102110.53;;;18.31;89.19
49979;BME280;35869;50.990;6.962;2023-06-24T03:06:43;102104.78;;;18.24;88.55
49979;BME280;35869;50.990;6.962;2023-06-24T03:11:44;102104.06;;;18.21;89.09
49979;BME280;35869;50.990;6.962;2023-06-24T03:16:44;102100.69;;;18.19;87.98
49979;BME280;35869;50.990;6.962;2023-06-24T03:21:45;102102.53;;;18.17;87.79
49979;BME280;35869;50.990;6.962;2023-06-24T03:26:45;102109.81;;;18.11;88.26
49979;BME280;35869;50.990;6.962;2023-06-24T03:31:45;102118.66;;;18.10;87.42
49979;BME280;35869;50.990;6.962;2023-06-24T03:36:46;102122.81;;;18.15;87.57
49979;BME280;35869;50.990;6.962;2023-06-24T03:41:46;102123.06;;;18.10;88.10
49979;BME280;35869;50.990;6.962;2023-06-24T03:46:46;102124.09;;;18.07;89.11
49979;BME280;35869;50.990;6.962;2023-06-24T03:51:47;102127.81;;;18.03;87.30
49979;BME280;35869;50.990;6.962;2023-06-24T03:56:47;102122.63;;;18.02;88.13
49979;BME280;35869;50.990;6.962;2023-06-24T04:01:47;102117.63;;;17.97;88.33
49979;BME280;35869;50.990;6.962;2023-06-24T04:06:47;102120.44;;;17.94;89.25
49979;BME280;35869;50.990;6.962;2023-06-24T04:11:47;102134.44;;;17.95;89.25
49979;BME280;35869;50.990;6.962;2023-06-24T04:16:47;102142.38;;;17.93;89.80
49979;BME280;35869;50.990;6.962;2023-06-24T04:21:48;102155.47;;;17.95;89.75
49979;BME280;35869;50.990;6.962;2023-06-24T04:26:48;102154.63;;;17.94;88.87
49979;BME280;35869;50.990;6.962;2023-06-24T04:31:48;102159.88;;;17.94;89.38
49979;BME280;35869;50.990;6.962;2023-06-24T04:36:48;102155.47;;;17.95;89.84
49979;BME280;35869;50.990;6.962;2023-06-24T04:41:48;102158.84;;;17.97;89.59
49979;BME280;35869;50.990;6.962;2023-06-24T04:46:49;102145.78;;;17.95;89.75
49979;BME280;35869;50.990;6.962;2023-06-24T04:51:49;102158.78;;;17.98;88.61
49979;BME280;35869;50.990;6.962;2023-06-24T04:56:49;102152.56;;;17.99;89.21
49979;BME280;35869;50.990;6.962;2023-06-24T05:01:49;102150.03;;;17.98;88.65
49979;BME280;35869;50.990;6.962;2023-06-24T05:06:49;102153.41;;;18.00;88.71
49979;BME280;35869;50.990;6.962;2023-06-24T05:11:50;102158.69;;;18.00;88.84
49979;BME280;35869;50.990;6.962;2023-06-24T05:16:50;102154.31;;;18.00;88.45
49979;BME280;35869;50.990;6.962;2023-06-24T05:21:50;102159.38;;;18.03;88.89
49979;BME280;35869;50.990;6.962;2023-06-24T05:26:51;102151.50;;;18.03;90.02
49979;BME280;35869;50.990;6.962;2023-06-24T05:31:51;102151.41;;;18.05;89.12
49979;BME280;35869;50.990;6.962;2023-06-24T05:36:51;102155.66;;;18.07;89.17
49979;BME280;35869;50.990;6.962;2023-06-24T05:41:52;102155.50;;;18.10;87.19
49979;BME280;35869;50.990;6.962;2023-06-24T05:46:52;102159.81;;;18.11;88.63
49979;BME280;35869;50.990;6.962;2023-06-24T05:51:52;102157.88;;;18.15;87.22
49979;BME280;35869;50.990;6.962;2023-06-24T05:56:52;102155.88;;;18.20;85.63
49979;BME280;35869;50.990;6.962;2023-06-24T06:01:52;102146.88;;;18.24;84.83
49979;BME280;35869;50.990;6.962;2023-06-24T06:06:53;102152.06;;;18.26;88.38
49979;BME280;35869;50.990;6.962;2023-06-24T06:11:53;102154.34;;;18.32;85.74
49979;BME280;35869;50.990;6.962;2023-06-24T06:16:53;102157.78;;;18.50;89.00
49979;BME280;35869;50.990;6.962;2023-06-24T06:21:53;102160.31;;;18.51;86.34
49979;BME280;35869;50.990;6.962;2023-06-24T06:26:53;102169.25;;;18.49;86.49
49979;BME280;35869;50.990;6.962;2023-06-24T06:31:54;102159.22;;;18.55;86.72
49979;BME280;35869;50.990;6.962;2023-06-24T06:36:54;102162.56;;;18.90;89.64
49979;BME280;35869;50.990;6.962;2023-06-24T06:41:54;102178.81;;;18.83;86.21
49979;BME280;35869;50.990;6.962;2023-06-24T06:46:54;102181.69;;;18.94;85.78
49979;BME280;35869;50.990;6.962;2023-06-24T06:51:54;102178.63;;;19.02;85.48
49979;BME280;35869;50.990;6.962;2023-06-24T06:56:55;102175.19;;;19.15;84.89
49979;BME280;35869;50.990;6.962;2023-06-24T07:01:55;102175.38;;;19.42;86.40
49979;BME280;35869;50.990;6.962;2023-06-24T07:06:55;102182.97;;;19.33;86.83
49979;BME280;35869;50.990;6.962;2023-06-24T07:11:55;102182.56;;;19.70;83.29
49979;BME280;35869;50.990;6.962;2023-06-24T07:16:55;102190.97;;;19.91;82.49
49979;BME280;35869;50.990;6.962;2023-06-24T07:21:56;102178.72;;;19.76;81.90
49979;BME280;35869;50.990;6.962;2023-06-24T07:26:56;102182.50;;;20.01;80.90
49979;BME280;35869;50.990;6.962;2023-06-24T07:31:56;102187.00;;;19.84;81.85
49979;BME280;35869;50.990;6.962;2023-06-24T07:36:56;102191.94;;;20.19;78.91
49979;BME280;35869;50.990;6.962;2023-06-24T07:41:56;102187.69;;;20.16;80.01
49979;BME280;35869;50.990;6.962;2023-06-24T07:46:57;102187.22;;;20.10;81.06
49979;BME280;35869;50.990;6.962;2023-06-24T07:51:57;102181.09;;;20.38;78.47
49979;BME280;35869;50.990;6.962;2023-06-24T07:56:57;102178.38;;;20.54;76.04
49979;BME280;35869;50.990;6.962;2023-06-24T08:01:57;102185.78;;;20.75;72.04
49979;BME280;35869;50.990;6.962;2023-06-24T08:06:58;102184.84;;;20.62;75.87
49979;BME280;35869;50.990;6.962;2023-06-24T08:11:58;102176.13;;;20.89;73.26
49979;BME280;35869;50.990;6.962;2023-06-24T08:16:58;102172.31;;;20.93;74.04
49979;BME280;35869;50.990;6.962;2023-06-24T08:21:58;102166.72;;;20.97;75.04
49979;BME280;35869;50.990;6.962;2023-06-24T08:26:58;102168.69;;;21.08;73.87
49979;BME280;35869;50.990;6.962;2023-06-24T08:31:59;102167.34;;;21.55;69.43
49979;BME280;35869;50.990;6.962;2023-06-24T08:36:59;102163.09;;;21.13;76.42
49979;BME280;35869;50.990;6.962;2023-06-24T08:41:59;102162.59;;;21.60;72.60
49979;BME280;35869;50.990;6.962;2023-06-24T08:46:59;102157.31;;;21.60;72.68
49979;BME280;35869;50.990;6.962;2023-06-24T08:52:08;102152.34;;;21.94;71.80
49979;BME280;35869;50.990;6.962;2023-06-24T08:57:11;102152.47;;;22.18;70.41
49979;BME280;35869;50.990;6.962;2023-06-24T09:02:11;102151.09;;;22.12;73.48
49979;BME280;35869;50.990;6.962;2023-06-24T09:07:11;102143.94;;;22.38;72.36
49979;BME280;35869;50.990;6.962;2023-06-24T09:12:13;102142.50;;;22.58;72.64
49979;BME280;35869;50.990;6.962;2023-06-24T09:17:14;102132.00;;;22.93;70.13
49979;BME280;35869;50.990;6.962;2023-06-24T09:22:15;102134.13;;;23.12;72.16
49979;BME280;35869;50.990;6.962;2023-06-24T09:27:16;102131.19;;;23.39;71.89
49979;BME280;35869;50.990;6.962;2023-06-24T09:32:17;102125.13;;;23.72;72.09
49979;BME280;35869;50.990;6.962;2023-06-24T09:37:21;102116.34;;;24.16;73.08
49979;BME280;35869;50.990;6.962;2023-06-24T09:42:22;102103.06;;;24.71;64.96
49979;BME280;35869;50.990;6.962;2023-06-24T09:47:22;102108.50;;;25.02;70.25
49979;BME280;35869;50.990;6.962;2023-06-24T09:52:23;102108.09;;;25.17;70.00
49979;BME280;35869;50.990;6.962;2023-06-24T09:57:29;102097.72;;;25.35;68.13
49979;BME280;35869;50.990;6.962;2023-06-24T10:02:31;102099.72;;;25.43;69.59
49979;BME280;35869;50.990;6.962;2023-06-24T10:07:34;102092.97;;;25.90;67.55
49979;BME280;35869;50.990;6.962;2023-06-24T10:12:35;102089.66;;;25.98;65.36
49979;BME280;35869;50.990;6.962;2023-06-24T10:17:37;102076.38;;;26.17;62.79
49979;BME280;35869;50.990;6.962;2023-06-24T10:22:37;102069.97;;;26.39;64.10
49979;BME280;35869;50.990;6.962;2023-06-24T10:27:40;102066.63;;;26.66;62.88
49979;BME280;35869;50.990;6.962;2023-06-24T10:32:41;102053.28;;;26.95;63.12
49979;BME280;35869;50.990;6.962;2023-06-24T10:37:54;102050.59;;;27.15;60.93
49979;BME280;35869;50.990;6.962;2023-06-24T10:42:54;102042.25;;;27.37;57.52
49979;BME280;35869;50.990;6.962;2023-06-24T10:47:54;102041.81;;;27.51;59.27
49979;BME280;35869;50.990;6.962;2023-06-24T10:52:55;102032.25;;;27.86;59.19
49979;BME280;35869;50.990;6.962;2023-06-24T10:58:07;102028.06;;;28.01;57.88
49979;BME280;35869;50.990;6.962;2023-06-24T11:03:11;102017.50;;;28.27;58.27
49979;BME280;35869;50.990;6.962;2023-06-24T11:08:12;102014.84;;;28.45;56.51
49979;BME280;35869;50.990;6.962;2023-06-24T11:13:13;102012.16;;;28.63;56.46
49979;BME280;35869;50.990;6.962;2023-06-24T11:18:13;102000.97;;;28.85;50.31
49979;BME280;35869;50.990;6.962;2023-06-24T11:23:13;102001.25;;;28.56;50.29
49979;BME280;35869;50.990;6.962;2023-06-24T11:28:15;102001.72;;;28.95;50.90
49979;BME280;35869;50.990;6.962;2023-06-24T11:33:29;101987.06;;;28.82;54.19
49979;BME280;35869;50.990;6.962;2023-06-24T11:38:29;101991.03;;;29.21;51.59
49979;BME280;35869;50.990;6.962;2023-06-24T11:43:29;101984.63;;;29.14;52.27
49979;BME280;35869;50.990;6.962;2023-06-24T11:48:29;101977.84;;;29.36;53.08
49979;BME280;35869;50.990;6.962;2023-06-24T11:53:31;101987.09;;;29.42;50.71
49979;BME280;35869;50.990;6.962;2023-06-24T11:58:42;101973.81;;;29.66;49.96
49979;BME280;35869;50.990;6.962;2023-06-24T12:03:43;101962.72;;;30.12;48.87
49979;BME280;35869;50.990;6.962;2023-06-24T12:08:44;101959.44;;;29.76;51.00
49979;BME280;35869;50.990;6.962;2023-06-24T12:13:44;101952.06;;;29.78;47.10
49979;BME280;35869;50.990;6.962;2023-06-24T12:18:44;101944.78;;;30.12;45.92
49979;BME280;35869;50.990;6.962;2023-06-24T12:23:45;101942.91;;;30.05;49.53
49979;BME280;35869;50.990;6.962;2023-06-24T12:28:45;101945.47;;;30.14;50.37
49979;BME280;35869;50.990;6.962;2023-06-24T12:33:45;101942.28;;;30.19;48.30
49979;BME280;35869;50.990;6.962;2023-06-24T12:38:45;101936.31;;;31.05;40.28
49979;BME280;35869;50.990;6.962;2023-06-24T12:43:45;101939.75;;;30.58;48.74
49979;BME280;35869;50.990;6.962;2023-06-24T12:48:46;101933.72;;;30.23;48.69
49979;BME280;35869;50.990;6.962;2023-06-24T12:53:46;101946.41;;;29.81;46.74
49979;BME280;35869;50.990;6.962;2023-06-24T12:58:46;101924.31;;;30.76;45.24
49979;BME280;35869;50.990;6.962;2023-06-24T13:03:46;101918.41;;;30.97;48.39
49979;BME280;35869;50.990;6.962;2023-06-24T13:08:46;101920.31;;;30.56;44.13
49979;BME280;35869;50.990;6.962;2023-06-24T13:13:47;101921.91;;;30.98;46.87
49979;BME280;35869;50.990;6.962;2023-06-24T13:18:47;101918.91;;;30.93;47.49
49979;BME280;35869;50.990;6.962;2023-06-24T13:23:48;101919.97;;;30.67;42.72
49979;BME280;35869;50.990;6.962;2023-06-24T13:28:48;101923.63;;;30.66;48.00
49979;BME280;35869;50.990;6.962;2023-06-24T13:33:49;101908.56;;;31.29;44.25
49979;BME280;35869;50.990;6.962;2023-06-24T13:38:49;101907.22;;;31.25;40.62
49979;BME280;35869;50.990;6.962;2023-06-24T13:43:49;101905.16;;;30.88;45.33
49979;BME280;35869;50.990;6.962;2023-06-24T13:48:50;101895.81;;;30.59;45.87
49979;BME280;35869;50.990;6.962;2023-06-24T13:53:52;101892.13;;;30.68;44.58
49979;BME280;35869;50.990;6.962;2023-06-24T13:58:53;101892.78;;;30.70;45.23
49979;BME280;35869;50.990;6.962;2023-06-24T14:03:54;101888.91;;;30.81;46.43
49979;BME280;35869;50.990;6.962;2023-06-24T14:08:54;101885.22;;;30.66;45.05
49979;BME280;35869;50.990;6.962;2023-06-24T14:13:55;101882.78;;;30.15;44.75
49979;BME280;35869;50.990;6.962;2023-06-24T14:18:55;101871.56;;;30.12;44.79
49979;BME280;35869;50.990;6.962;2023-06-24T14:23:55;101874.69;;;30.56;42.14
49979;BME280;35869;50.990;6.962;2023-06-24T14:28:55;101877.34;;;30.64;43.17
49979;BME280;35869;50.990;6.962;2023-06-24T14:33:56;101867.94;;;30.76;40.72
49979;BME280;35869;50.990;6.962;2023-06-24T14:38:56;101876.34;;;30.73;43.25
49979;BME280;35869;50.990;6.962;2023-06-24T14:43:56;101873.19;;;30.62;44.33
49979;BME280;35869;50.990;6.962;2023-06-24T14:48:56;101862.25;;;30.63;36.48
49979;BME280;35869;50.990;6.962;2023-06-24T14:53:57;101858.44;;;30.49;44.44
49979;BME280;35869;50.990;6.962;2023-06-24T14:58:57;101850.91;;;30.37;43.56
49979;BME280;35869;50.990;6.962;2023-06-24T15:03:57;101853.63;;;30.20;44.70
49979;BME280;35869;50.990;6.962;2023-06-24T15:08:57;101856.94;;;30.39;40.02
49979;BME280;35869;50.990;6.962;2023-06-24T15:13:58;101848.41;;;30.27;40.51
49979;BME280;35869;50.990;6.962;2023-06-24T15:18:58;101841.03;;;30.29;38.05
49979;BME280;35869;50.990;6.962;2023-06-24T15:23:58;101842.69;;;30.06;42.70
49979;BME280;35869;50.990;6.962;2023-06-24T15:28:58;101832.00;;;30.14;39.63
49979;BME280;35869;50.990;6.962;2023-06-24T15:33:58;101834.09;;;29.45;41.66
49979;BME280;35869;50.990;6.962;2023-06-24T15:38:59;101827.44;;;29.57;42.93
49979;BME280;35869;50.990;6.962;2023-06-24T15:43:59;101817.72;;;29.56;37.00
49979;BME280;35869;50.990;6.962;2023-06-24T15:48:59;101820.53;;;29.38;38.33
49979;BME280;35869;50.990;6.962;2023-06-24T15:53:59;101813.84;;;29.51;40.97
49979;BME280;35869;50.990;6.962;2023-06-24T15:59:00;101810.84;;;29.54;41.28
49979;BME280;35869;50.990;6.962;2023-06-24T16:04:00;101807.16;;;29.55;42.65
49979;BME280;35869;50.990;6.962;2023-06-24T16:09:00;101804.34;;;29.64;36.60
49979;BME280;35869;50.990;6.962;2023-06-24T16:14:01;101803.28;;;29.49;37.47
49979;BME280;35869;50.990;6.962;2023-06-24T16:19:01;101798.09;;;29.47;38.82
49979;BME280;35869;50.990;6.962;2023-06-24T16:24:01;101791.91;;;29.39;41.26
49979;BME280;35869;50.990;6.962;2023-06-24T16:29:01;101793.03;;;29.36;37.90
49979;BME280;35869;50.990;6.962;2023-06-24T16:34:01;101790.38;;;29.28;37.91
49979;BME280;35869;50.990;6.962;2023-06-24T16:39:02;101792.16;;;29.11;38.50
49979;BME280;35869;50.990;6.962;2023-06-24T16:44:02;101790.63;;;29.01;39.64
49979;BME280;35869;50.990;6.962;2023-06-24T16:49:02;101801.75;;;28.88;37.14
49979;BME280;35869;50.990;6.962;2023-06-24T16:54:03;101789.84;;;28.82;37.88
49979;BME280;35869;50.990;6.962;2023-06-24T16:59:03;101793.16;;;28.68;39.62
49979;BME280;35869;50.990;6.962;2023-06-24T17:04:03;101797.13;;;28.56;42.43
49979;BME280;35869;50.990;6.962;2023-06-24T17:09:04;101787.56;;;28.53;39.81
49979;BME280;35869;50.990;6.962;2023-06-24T17:14:04;101795.97;;;28.32;44.13
49979;BME280;35869;50.990;6.962;2023-06-24T17:19:04;101786.94;;;28.33;38.07
49979;BME280;35869;50.990;6.962;2023-06-24T17:24:05;101778.50;;;28.02;43.71
49979;BME280;35869;50.990;6.962;2023-06-24T17:29:05;101781.25;;;28.10;40.98
49979;BME280;35869;50.990;6.962;2023-06-24T17:34:06;101774.88;;;28.03;39.84
49979;BME280;35869;50.990;6.962;2023-06-24T17:39:06;101772.75;;;27.89;38.74
49979;BME280;35869;50.990;6.962;2023-06-24T17:44:06;101774.31;;;27.74;44.08
49979;BME280;35869;50.990;6.962;2023-06-24T17:49:06;101777.19;;;27.62;41.75
49979;BME280;35869;50.990;6.962;2023-06-24T17:54:07;101769.53;;;27.50;45.01
49979;BME280;35869;50.990;6.962;2023-06-24T17:59:08;101767.63;;;27.42;44.64
49979;BME280;35869;50.990;6.962;2023-06-24T18:04:08;101762.59;;;27.21;45.97
49979;BME280;35869;50.990;6.962;2023-06-24T18:09:08;101762.06;;;27.18;43.39
49979;BME280;35869;50.990;6.962;2023-06-24T18:14:08;101769.56;;;27.04;45.49
49979;BME280;35869;50.990;6.962;2023-06-24T18:19:09;101758.03;;;26.86;46.97
49979;BME280;35869;50.990;6.962;2023-06-24T18:24:09;101748.22;;;26.77;47.05
49979;BME280;35869;50.990;6.962;2023-06-24T18:29:09;101742.00;;;26.58;48.17
49979;BME280;35869;50.990;6.962;2023-06-24T18:34:10;101748.50;;;26.46;47.21
49979;BME280;35869;50.990;6.962;2023-06-24T18:39:10;101742.78;;;26.31;47.63
49979;BME280;35869;50.990;6.962;2023-06-24T18:44:11;101739.75;;;26.17;48.82
49979;BME280;35869;50.990;6.962;2023-06-24T18:49:11;101733.59;;;26.07;48.66
49979;BME280;35869;50.990;6.962;2023-06-24T18:54:11;101731.66;;;25.89;49.07
49979;BME280;35869;50.990;6.962;2023-06-24T18:59:11;101738.16;;;25.77;48.73
49979;BME280;35869;50.990;6.962;2023-06-24T19:04:12;101734.91;;;25.64;49.44
49979;BME280;35869;50.990;6.962;2023-06-24T19:09:12;101722.72;;;25.51;49.11
49979;BME280;35869;50.990;6.962;2023-06-24T19:14:12;101732.25;;;25.35;49.76
49979;BME280;35869;50.990;6.962;2023-06-24T19:19:12;101726.38;;;25.21;49.70
49979;BME280;35869;50.990;6.962;2023-06-24T19:24:12;101724.94;;;25.08;49.89
49979;BME280;35869;50.990;6.962;2023-06-24T19:29:13;101727.25;;;24.91;50.25
49979;BME280;35869;50.990;6.962;2023-06-24T19:34:13;101732.13;;;24.77;50.07
49979;BME280;35869;50.990;6.962;2023-06-24T19:39:13;101735.84;;;24.64;50.26
49979;BME280;35869;50.990;6.962;2023-06-24T19:44:13;101745.75;;;24.53;50.40
49979;BME280;35869;50.990;6.962;2023-06-24T19:49:14;101747.66;;;24.41;51.13
49979;BME280;35869;50.990;6.962;2023-06-24T19:54:14;101745.28;;;24.27;51.36
49979;BME280;35869;50.990;6.962;2023-06-24T19:59:14;101739.94;;;24.17;50.79
49979;BME280;35869;50.990;6.962;2023-06-24T20:04:14;101750.78;;;24.04;51.73
49979;BME280;35869;50.990;6.962;2023-06-24T20:09:14;101742.03;;;23.92;51.93
49979;BME280;35869;50.990;6.962;2023-06-24T20:14:15;101747.28;;;23.83;52.27
49979;BME280;35869;50.990;6.962;2023-06-24T20:19:15;101745.66;;;23.71;53.01
49979;BME280;35869;50.990;6.962;2023-06-24T20:24:15;101746.50;;;23.60;52.76
49979;BME280;35869;50.990;6.962;2023-06-24T20:29:15;101745.72;;;23.48;53.69
49979;BME280;35869;50.990;6.962;2023-06-24T20:34:16;101749.09;;;23.39;53.85
49979;BME280;35869;50.990;6.962;2023-06-24T20:39:16;101744.81;;;23.27;54.32
49979;BME280;35869;50.990;6.962;2023-06-24T20:44:16;101751.72;;;23.18;55.67
49979;BME280;35869;50.990;6.962;2023-06-24T20:49:16;101749.09;;;23.07;55.88
49979;BME280;35869;50.990;6.962;2023-06-24T20:54:16;101741.16;;;22.96;55.32
49979;BME280;35869;50.990;6.962;2023-06-24T20:59:17;101727.69;;;22.87;55.53
49979;BME280;35869;50.990;6.962;2023-06-24T21:04:17;101731.16;;;22.77;56.68
49979;BME280;35869;50.990;6.962;2023-06-24T21:09:17;101726.47;;;22.69;57.40
49979;BME280;35869;50.990;6.962;2023-06-24T21:14:17;101721.19;;;22.58;58.41
49979;BME280;35869;50.990;6.962;2023-06-24T21:19:18;101729.72;;;22.50;58.80
49979;BME280;35869;50.990;6.962;2023-06-24T21:24:18;101721.41;;;22.44;59.82
49979;BME280;35869;50.990;6.962;2023-06-24T21:29:18;101723.09;;;22.33;59.80
49979;BME280;35869;50.990;6.962;2023-06-24T21:34:18;101716.44;;;22.28;60.78
49979;BME280;35869;50.990;6.962;2023-06-24T21:39:18;101718.75;;;22.21;61.77
49979;BME280;35869;50.990;6.962;2023-06-24T21:44:19;101718.25;;;22.16;60.54
49979;BME280;35869;50.990;6.962;2023-06-24T21:49:19;101725.91;;;22.08;62.04
49979;BME280;35869;50.990;6.962;2023-06-24T21:54:19;101719.63;;;21.98;61.08
49979;BME280;35869;50.990;6.962;2023-06-24T21:59:19;101719.13;;;21.93;61.31
49979;BME280;35869;50.990;6.962;2023-06-24T22:04:19;101719.84;;;21.83;62.94
49979;BME280;35869;50.990;6.962;2023-06-24T22:09:20;101721.28;;;21.76;62.73
49979;BME280;35869;50.990;6.962;2023-06-24T22:14:20;101724.41;;;21.70;63.32
49979;BME280;35869;50.990;6.962;2023-06-24T22:19:20;101724.09;;;21.62;62.36
49979;BME280;35869;50.990;6.962;2023-06-24T22:24:20;101724.56;;;21.56;62.49
49979;BME280;35869;50.990;6.962;2023-06-24T22:29:20;101715.88;;;21.43;64.09
49979;BME280;35869;50.990;6.962;2023-06-24T22:34:21;101713.44;;;21.40;63.83
49979;BME280;35869;50.990;6.962;2023-06-24T22:39:21;101717.50;;;21.33;64.00
49979;BME280;35869;50.990;6.962;2023-06-24T22:44:21;101705.53;;;21.27;64.22
49979;BME280;35869;50.990;6.962;2023-06-24T22:49:21;101710.56;;;21.19;64.22
49979;BME280;35869;50.990;6.962;2023-06-24T22:54:22;101704.13;;;21.10;65.48
49979;BME280;35869;50.990;6.962;2023-06-24T22:59:22;101710.09;;;21.01;66.40
49979;BME280;35869;50.990;6.962;2023-06-24T23:04:22;101707.91;;;20.95;66.91
49979;BME280;35869;50.990;6.962;2023-06-24T23:09:23;101704.88;;;20.88;66.97
49979;BME280;35869;50.990;6.962;2023-06-24T23:14:23;101713.13;;;20.84;66.97
49979;BME280;35869;50.990;6.962;2023-06-24T23:19:24;101719.03;;;20.74;67.26
49979;BME280;35869;50.990;6.962;2023-06-24T23:24:24;101707.94;;;20.69;67.58
49979;BME280;35869;50.990;6.962;2023-06-24T23:29:26;101709.34;;;20.62;67.38
49979;BME280;35869;50.990;6.962;2023-06-24T23:34:26;101713.38;;;20.55;68.13
49979;BME280;35869;50.990;6.962;2023-06-24T23:39:27;101704.81;;;20.52;68.08
49979;BME280;35869;50.990;6.962;2023-06-24T23:44:27;101702.59;;;20.45;68.48
49979;BME280;35869;50.990;6.962;2023-06-24T23:49:28;101693.28;;;20.40;68.41
49979;BME280;35869;50.990;6.962;2023-06-24T23:54:28;101694.56;;;20.34;69.05
49979;BME280;35869;50.990;6.962;2023-06-24T23:59:28;101691.31;;;20.31;68.50
